Time;durP1;ratioP1;P1;durP2;ratioP2;P2;SDS_P1;SDS_P2;PMS_P1;PMS_P2;Temp;Humidity;BMP_temperature;BMP_pressure;BME280_temperature;BME280_humidity;BME280_pressure;Samples;Min_cycle;Max_cycle;Signal;HPM_P1;HPM_P2
2024/01/29 00:00:33;;;;;;;1.33;1.20;;;6.10;99.90;;;;;;7366753;19;20242;-79
2024/01/29 00:02:59;;;;;;;2.27;1.77;;;6.10;99.90;;;;;;7389758;19;20143;-79
2024/01/29 00:05:24;;;;;;;1.20;1.10;;;6.10;99.90;;;;;;7367548;19;20220;-77
2024/01/29 00:07:50;;;;;;;1.23;1.10;;;6.00;99.90;;;;;;7367981;19;20190;-79
2024/01/29 00:10:16;;;;;;;2.73;1.83;;;6.00;99.90;;;;;;7364593;19;20675;-78
2024/01/29 00:12:41;;;;;;;1.20;1.10;;;6.00;99.90;;;;;;7368271;19;20257;-79
2024/01/29 00:15:08;;;;;;;1.30;1.20;;;5.80;99.90;;;;;;7369238;19;20611;-79
2024/01/29 00:17:33;;;;;;;3.97;1.40;;;5.90;99.90;;;;;;7391910;19;20150;-79
2024/01/29 00:19:59;;;;;;;3.10;1.67;;;5.80;99.90;;;;;;7366831;19;20535;-77
2024/01/29 00:22:25;;;;;;;2.83;1.37;;;6.00;99.90;;;;;;7369510;19;20186;-80
2024/01/29 00:24:50;;;;;;;2.27;1.33;;;5.90;99.90;;;;;;7366602;19;20178;-79
2024/01/29 00:27:16;;;;;;;1.20;1.07;;;5.90;99.90;;;;;;7369011;19;20150;-79
2024/01/29 00:29:41;;;;;;;1.13;1.03;;;5.90;99.90;;;;;;7390102;19;20130;-78
2024/01/29 00:32:07;;;;;;;1.33;1.10;;;6.00;99.90;;;;;;7367398;19;20200;-78
2024/01/29 00:34:33;;;;;;;2.13;1.17;;;5.90;99.90;;;;;;7369036;19;20186;-79
2024/01/29 00:36:58;;;;;;;2.67;1.63;;;5.90;99.90;;;;;;7366942;19;20483;-78
2024/01/29 00:39:24;;;;;;;1.53;0.80;;;5.90;99.90;;;;;;7366749;19;20135;-78
2024/01/29 00:41:50;;;;;;;1.20;1.07;;;5.80;99.90;;;;;;7389575;19;20139;-78
2024/01/29 00:44:17;;;;;;;1.57;1.30;;;5.80;99.90;;;;;;7366497;19;20259;-78
2024/01/29 00:46:43;;;;;;;1.53;1.40;;;5.60;99.90;;;;;;7364128;19;20193;-78
2024/01/29 00:49:08;;;;;;;1.03;0.93;;;5.70;99.90;;;;;;7368421;19;20651;-78
2024/01/29 00:51:35;;;;;;;1.47;1.27;;;5.60;99.90;;;;;;7368687;19;20185;-79
2024/01/29 00:54:01;;;;;;;0.77;0.77;;;5.60;99.90;;;;;;7390426;19;20140;-79
2024/01/29 00:56:27;;;;;;;1.77;1.60;;;5.70;99.90;;;;;;7366950;19;20190;-77
2024/01/29 00:58:52;;;;;;;1.43;1.33;;;5.70;99.90;;;;;;7367211;19;20566;-79
2024/01/29 01:01:18;;;;;;;2.13;1.23;;;5.70;99.90;;;;;;7363765;19;20186;-79
2024/01/29 01:03:44;;;;;;;1.30;1.00;;;5.80;99.90;;;;;;7367548;19;20524;-79
2024/01/29 01:06:10;;;;;;;1.90;1.50;;;5.90;99.90;;;;;;7364156;19;20181;-77
2024/01/29 01:08:36;;;;;;;2.03;1.60;;;5.90;99.90;;;;;;7389152;19;20150;-77
2024/01/29 01:11:03;;;;;;;3.00;1.50;;;5.50;99.90;;;;;;7365160;19;20808;-78
2024/01/29 01:13:29;;;;;;;1.47;1.37;;;5.30;99.90;;;;;;7363437;19;20181;-78
2024/01/29 01:15:54;;;;;;;1.70;1.20;;;5.40;99.90;;;;;;7366145;19;20207;-78
2024/01/29 01:18:20;;;;;;;1.97;1.40;;;5.50;99.90;;;;;;7366258;19;20170;-78
2024/01/29 01:20:45;;;;;;;3.13;1.90;;;5.50;99.90;;;;;;7389369;19;20147;-77
2024/01/29 01:23:11;;;;;;;2.47;1.97;;;5.50;99.90;;;;;;7367418;19;20193;-79
2024/01/29 01:25:43;;;;;;;2.87;1.23;;;5.60;99.90;;;;;;7363570;19;20197;-79
2024/01/29 01:28:08;;;;;;;1.40;1.27;;;5.50;99.90;;;;;;7367097;19;20190;-79
2024/01/29 01:30:34;;;;;;;2.13;1.10;;;5.30;99.90;;;;;;7366154;19;20270;-80
2024/01/29 01:33:00;;;;;;;2.07;1.13;;;5.30;99.90;;;;;;7388818;19;20142;-78
2024/01/29 01:35:25;;;;;;;0.90;0.83;;;5.50;99.90;;;;;;7366598;19;20194;-77
2024/01/29 01:37:51;;;;;;;2.13;1.63;;;5.60;99.90;;;;;;7367209;19;20196;-79
2024/01/29 01:40:17;;;;;;;2.57;1.30;;;5.50;99.90;;;;;;7364059;19;20189;-80
2024/01/29 01:42:44;;;;;;;1.80;1.40;;;5.60;99.90;;;;;;7367164;19;20635;-79
2024/01/29 01:45:11;;;;;;;2.53;1.50;;;5.60;99.90;;;;;;7363759;19;20123;-77
2024/01/29 01:47:37;;;;;;;1.63;1.20;;;5.40;99.90;;;;;;7388865;19;20152;-77
2024/01/29 01:50:08;;;;;;;1.63;1.53;;;5.30;99.90;;;;;;7363006;19;20182;-79
2024/01/29 01:52:37;;;;;;;1.53;1.37;;;5.30;99.90;;;;;;7365317;19;20190;-78
2024/01/29 01:55:03;;;;;;;2.23;1.43;;;5.40;99.90;;;;;;7366978;19;20211;-77
2024/01/29 01:57:29;;;;;;;1.20;0.90;;;5.40;99.90;;;;;;7365826;19;20197;-78
2024/01/29 01:59:56;;;;;;;1.63;1.53;;;5.40;99.90;;;;;;7387670;19;20137;-80
2024/01/29 02:02:22;;;;;;;1.67;1.53;;;5.40;99.90;;;;;;7364388;19;20540;-78
2024/01/29 02:04:47;;;;;;;1.93;1.63;;;5.40;99.90;;;;;;7364876;19;20246;-77
2024/01/29 02:07:13;;;;;;;2.40;1.40;;;5.50;99.90;;;;;;7363914;19;20197;-78
2024/01/29 02:09:39;;;;;;;1.10;1.00;;;5.40;99.90;;;;;;7359235;19;20194;-78
2024/01/29 02:12:05;;;;;;;1.37;0.93;;;5.20;99.90;;;;;;7385982;19;20541;-79
2024/01/29 02:14:30;;;;;;;2.33;1.60;;;5.10;99.90;;;;;;7366921;19;20536;-78
2024/01/29 02:16:56;;;;;;;1.50;1.17;;;5.10;99.90;;;;;;7362312;19;20194;-78
2024/01/29 02:19:22;;;;;;;1.03;0.90;;;5.10;99.90;;;;;;7365295;19;20192;-79
2024/01/29 02:21:49;;;;;;;1.73;1.53;;;5.20;99.90;;;;;;7362683;19;20264;-77
2024/01/29 02:24:15;;;;;;;1.60;1.17;;;5.20;99.90;;;;;;7365325;19;20149;-80
2024/01/29 02:26:45;;;;;;;1.23;1.13;;;5.30;99.90;;;;;;7387122;19;20203;-79
2024/01/29 02:29:11;;;;;;;1.37;1.23;;;5.40;99.90;;;;;;7370860;19;20186;-79
2024/01/29 02:31:39;;;;;;;2.73;1.47;;;5.40;99.90;;;;;;7371392;19;20505;-79
2024/01/29 02:34:05;;;;;;;2.13;1.13;;;5.40;99.90;;;;;;7370777;19;20733;-79
2024/01/29 02:36:30;;;;;;;1.77;1.13;;;5.10;99.90;;;;;;7372350;19;20248;-79
2024/01/29 02:38:56;;;;;;;1.83;1.60;;;5.10;99.90;;;;;;7392911;19;20258;-80
2024/01/29 02:41:22;;;;;;;1.50;1.40;;;5.30;99.90;;;;;;7369907;19;20960;-80
2024/01/29 02:43:47;;;;;;;2.10;1.60;;;5.30;99.90;;;;;;7370361;19;20185;-80
2024/01/29 02:46:13;;;;;;;1.90;1.30;;;5.30;99.90;;;;;;7372102;19;20233;-80
2024/01/29 02:48:39;;;;;;;1.90;1.40;;;5.20;99.90;;;;;;7372498;19;20186;-79
2024/01/29 02:51:04;;;;;;;2.37;1.87;;;5.00;99.90;;;;;;7392336;19;20131;-77
2024/01/29 02:53:30;;;;;;;2.17;1.63;;;4.80;99.90;;;;;;7374107;19;20217;-79
2024/01/29 02:55:55;;;;;;;2.53;1.50;;;5.00;99.90;;;;;;7371326;19;20185;-79
2024/01/29 02:58:21;;;;;;;1.47;1.37;;;5.00;99.90;;;;;;7365551;19;20324;-78
2024/01/29 03:00:47;;;;;;;1.73;1.37;;;5.20;99.90;;;;;;7369581;19;20189;-78
2024/01/29 03:03:13;;;;;;;1.70;1.50;;;5.10;99.90;;;;;;7371470;19;20146;-78
2024/01/29 03:05:39;;;;;;;1.93;1.67;;;5.20;99.90;;;;;;7391212;19;20162;-78
2024/01/29 03:08:06;;;;;;;3.47;1.43;;;5.20;99.90;;;;;;7370995;19;20695;-80
2024/01/29 03:10:32;;;;;;;2.27;1.83;;;5.30;99.90;;;;;;7367120;19;20702;-80
2024/01/29 03:12:58;;;;;;;2.07;1.77;;;5.30;99.90;;;;;;7369769;19;20185;-79
2024/01/29 03:15:24;;;;;;;2.10;1.67;;;5.20;99.90;;;;;;7368273;19;20495;-79
2024/01/29 03:17:50;;;;;;;1.80;1.50;;;5.20;99.90;;;;;;7392686;19;20141;-79
2024/01/29 03:20:16;;;;;;;3.17;1.37;;;5.30;99.90;;;;;;7367436;19;20174;-79
2024/01/29 03:22:41;;;;;;;1.73;1.40;;;5.20;99.90;;;;;;7370584;19;20829;-78
2024/01/29 03:25:07;;;;;;;1.90;1.57;;;5.10;99.90;;;;;;7366859;19;20182;-78
2024/01/29 03:27:33;;;;;;;1.90;1.17;;;5.20;99.90;;;;;;7366785;19;20192;-77
2024/01/29 03:29:59;;;;;;;0.87;0.87;;;5.00;99.90;;;;;;7391728;19;20518;-80
2024/01/29 03:32:24;;;;;;;1.67;1.33;;;5.00;99.90;;;;;;7369494;19;20245;-79
2024/01/29 03:34:50;;;;;;;2.07;1.53;;;5.00;99.90;;;;;;7370306;19;20182;-79
2024/01/29 03:37:15;;;;;;;2.70;1.50;;;4.90;99.90;;;;;;7366230;19;20742;-79
2024/01/29 03:39:41;;;;;;;1.30;1.10;;;4.90;99.90;;;;;;7367772;19;20189;-78
2024/01/29 03:42:07;;;;;;;1.77;1.30;;;4.90;99.90;;;;;;7370373;19;20151;-79
2024/01/29 03:44:32;;;;;;;1.70;1.33;;;4.90;99.90;;;;;;7391839;19;20143;-78
2024/01/29 03:46:58;;;;;;;1.57;1.47;;;5.00;99.90;;;;;;7369019;19;20174;-78
2024/01/29 03:49:23;;;;;;;2.43;1.60;;;5.00;99.90;;;;;;7366156;19;20924;-73
2024/01/29 03:51:49;;;;;;;3.00;1.93;;;5.00;99.90;;;;;;7368876;19;20275;-77
2024/01/29 03:54:15;;;;;;;2.23;1.40;;;5.00;99.90;;;;;;7369046;19;20170;-78
2024/01/29 03:56:40;;;;;;;1.10;1.00;;;5.00;99.90;;;;;;7393450;19;20139;-78
2024/01/29 03:59:10;;;;;;;1.30;1.20;;;5.00;99.90;;;;;;7367366;19;20198;-77
2024/01/29 04:01:37;;;;;;;1.27;1.17;;;4.90;99.90;;;;;;7367884;19;20206;-81
2024/01/29 04:04:03;;;;;;;1.33;1.23;;;4.90;99.90;;;;;;7370115;19;20185;-78
2024/01/29 04:06:29;;;;;;;1.33;1.17;;;4.90;99.90;;;;;;7365983;19;20225;-79
2024/01/29 04:08:54;;;;;;;2.23;1.70;;;4.90;99.90;;;;;;7389959;19;20142;-79
2024/01/29 04:11:21;;;;;;;1.37;1.17;;;4.90;99.90;;;;;;7367386;19;20199;-78
2024/01/29 04:13:46;;;;;;;1.67;1.53;;;5.00;99.90;;;;;;7365805;19;20186;-78
2024/01/29 04:16:12;;;;;;;1.23;1.13;;;5.00;99.90;;;;;;7368010;19;20201;-78
2024/01/29 04:18:40;;;;;;;1.53;0.97;;;5.00;99.90;;;;;;7367403;19;20186;-78
2024/01/29 04:21:06;;;;;;;2.33;1.60;;;5.10;99.90;;;;;;7374757;19;20127;-78
2024/01/29 04:23:35;;;;;;;1.13;1.03;;;5.00;99.90;;;;;;7390069;19;20509;-76
2024/01/29 04:26:01;;;;;;;1.40;1.10;;;5.00;99.90;;;;;;7367076;19;20629;-79
2024/01/29 04:28:27;;;;;;;1.17;1.07;;;4.90;99.90;;;;;;7366096;19;20193;-80
2024/01/29 04:30:56;;;;;;;2.10;1.30;;;4.90;99.90;;;;;;7365697;19;20190;-80
2024/01/29 04:33:21;;;;;;;1.17;1.07;;;5.00;99.90;;;;;;7368179;19;20163;-78
2024/01/29 04:35:47;;;;;;;3.07;1.33;;;4.60;99.90;;;;;;7389501;19;20147;-79
2024/01/29 04:38:12;;;;;;;1.87;1.63;;;4.70;99.90;;;;;;7367114;19;20186;-77
2024/01/29 04:40:42;;;;;;;1.97;1.77;;;4.80;99.90;;;;;;7363314;19;20221;-79
2024/01/29 04:43:07;;;;;;;1.93;1.20;;;4.80;99.90;;;;;;7369822;19;20208;-80
2024/01/29 04:45:33;;;;;;;2.50;1.67;;;4.80;99.90;;;;;;7366634;19;20190;-79
2024/01/29 04:47:58;;;;;;;1.80;1.70;;;4.70;99.90;;;;;;7390072;19;20154;-78
2024/01/29 04:50:24;;;;;;;1.23;1.10;;;4.80;99.90;;;;;;7364423;19;20182;-77
2024/01/29 04:52:50;;;;;;;3.10;2.30;;;4.80;99.90;;;;;;7365975;19;20178;-78
2024/01/29 04:55:15;;;;;;;0.87;0.87;;;4.90;99.90;;;;;;7365009;19;20193;-78
2024/01/29 04:57:41;;;;;;;1.47;1.37;;;4.90;99.90;;;;;;7367045;19;20181;-80
2024/01/29 05:00:08;;;;;;;1.20;1.20;;;4.90;99.90;;;;;;7365332;19;20130;-78
2024/01/29 05:02:34;;;;;;;1.67;1.30;;;4.90;99.90;;;;;;7389779;19;20143;-78
2024/01/29 05:05:00;;;;;;;2.23;1.90;;;4.90;99.90;;;;;;7363476;19;20243;-78
2024/01/29 05:07:25;;;;;;;1.87;1.30;;;4.90;99.90;;;;;;7369919;19;20186;-79
2024/01/29 05:09:51;;;;;;;1.77;1.40;;;4.90;99.90;;;;;;7363818;19;20182;-79
2024/01/29 05:12:16;;;;;;;1.77;0.87;;;5.00;99.90;;;;;;7368060;19;20144;-78
2024/01/29 05:14:42;;;;;;;2.93;1.73;;;4.90;99.90;;;;;;7390316;19;20130;-78
2024/01/29 05:17:09;;;;;;;1.73;1.20;;;4.90;99.90;;;;;;7363739;19;20692;-78
2024/01/29 05:19:35;;;;;;;1.13;1.03;;;4.80;99.90;;;;;;7363065;19;20742;-81
2024/01/29 05:22:01;;;;;;;1.70;1.07;;;4.90;99.90;;;;;;7366169;19;20198;-74
2024/01/29 05:24:27;;;;;;;1.20;1.10;;;4.90;99.90;;;;;;7366302;19;20192;-80
2024/01/29 05:26:53;;;;;;;1.07;0.97;;;5.00;99.90;;;;;;7387220;19;20530;-78
2024/01/29 05:29:18;;;;;;;1.10;1.07;;;5.00;99.90;;;;;;7364417;19;20174;-79
2024/01/29 05:31:44;;;;;;;2.23;1.60;;;5.10;99.90;;;;;;7364238;19;20557;-78
2024/01/29 05:34:10;;;;;;;1.73;1.23;;;4.80;99.90;;;;;;7364067;19;20185;-77
2024/01/29 05:36:35;;;;;;;1.43;1.23;;;4.30;99.90;;;;;;7365680;19;20197;-78
2024/01/29 05:39:01;;;;;;;2.37;1.17;;;4.50;99.90;;;;;;7384638;19;20235;-76
2024/01/29 05:41:26;;;;;;;3.30;1.70;;;4.80;99.90;;;;;;7363292;19;20591;-79
2024/01/29 05:43:52;;;;;;;1.23;1.00;;;4.70;99.90;;;;;;7363500;19;20214;-78
2024/01/29 05:46:18;;;;;;;2.10;1.80;;;4.40;99.90;;;;;;7365905;19;20209;-80
2024/01/29 05:48:43;;;;;;;1.80;1.30;;;4.60;99.90;;;;;;7361688;19;20257;-79
2024/01/29 05:51:09;;;;;;;1.43;1.00;;;4.70;99.90;;;;;;7364141;19;20479;-80
2024/01/29 05:53:34;;;;;;;1.03;0.97;;;4.90;99.90;;;;;;7384839;19;20123;-78
2024/01/29 05:56:04;;;;;;;4.10;1.20;;;4.90;99.90;;;;;;7364728;19;20616;-78
2024/01/29 05:58:32;;;;;;;1.57;1.30;;;5.00;99.90;;;;;;7363647;19;20197;-80
2024/01/29 06:00:59;;;;;;;2.40;1.77;;;4.90;99.90;;;;;;7361708;19;20193;-80
2024/01/29 06:03:25;;;;;;;1.17;1.07;;;4.90;99.90;;;;;;7363823;19;20612;-78
2024/01/29 06:05:51;;;;;;;1.13;1.13;;;4.90;99.90;;;;;;7386076;19;20254;-79
2024/01/29 06:08:16;;;;;;;2.60;1.77;;;5.00;99.90;;;;;;7361570;19;20194;-77
2024/01/29 06:10:42;;;;;;;2.17;1.40;;;5.10;99.90;;;;;;7362730;19;20584;-79
2024/01/29 06:13:08;;;;;;;0.90;0.80;;;5.10;99.90;;;;;;7362344;19;20253;-81
2024/01/29 06:15:34;;;;;;;2.07;1.50;;;4.90;99.90;;;;;;7366260;19;20686;-80
2024/01/29 06:17:59;;;;;;;0.83;0.83;;;4.90;99.90;;;;;;7386895;19;20146;-79
2024/01/29 06:20:25;;;;;;;0.90;0.83;;;4.90;99.90;;;;;;7361875;19;20185;-81
2024/01/29 06:22:50;;;;;;;1.60;1.47;;;5.00;99.90;;;;;;7365266;19;20650;-77
2024/01/29 06:25:19;;;;;;;1.57;1.47;;;4.80;99.90;;;;;;7362305;19;20251;-80
2024/01/29 06:27:45;;;;;;;1.80;1.37;;;5.00;99.90;;;;;;7362248;19;20620;-75
2024/01/29 06:30:11;;;;;;;1.60;1.50;;;4.90;99.90;;;;;;7365578;19;20158;-78
2024/01/29 06:32:37;;;;;;;0.90;0.90;;;4.90;99.90;;;;;;7384074;19;20162;-79
2024/01/29 06:35:03;;;;;;;1.20;1.07;;;5.00;99.90;;;;;;7362995;19;20197;-78
2024/01/29 06:37:28;;;;;;;1.30;1.13;;;4.90;99.90;;;;;;7360566;19;20226;-79
2024/01/29 06:39:54;;;;;;;1.03;0.80;;;4.80;99.90;;;;;;7361621;19;20860;-80
2024/01/29 06:42:20;;;;;;;2.53;2.00;;;4.80;99.90;;;;;;7361357;19;20131;-77
2024/01/29 06:44:45;;;;;;;1.73;1.47;;;4.90;99.90;;;;;;7387213;19;20506;-80
2024/01/29 06:47:11;;;;;;;0.87;0.87;;;5.00;99.90;;;;;;7362295;19;20197;-76
2024/01/29 06:49:37;;;;;;;1.87;1.67;;;4.90;99.90;;;;;;7361483;19;20195;-74
2024/01/29 06:52:03;;;;;;;3.33;1.70;;;4.90;99.90;;;;;;7361914;19;20186;-75
2024/01/29 06:54:28;;;;;;;1.37;1.10;;;5.00;99.90;;;;;;7362397;19;20659;-76
2024/01/29 06:56:55;;;;;;;1.50;1.40;;;5.10;99.90;;;;;;7384190;19;20145;-76
2024/01/29 06:59:21;;;;;;;1.10;1.00;;;5.10;99.90;;;;;;7360033;19;20186;-80
2024/01/29 07:01:46;;;;;;;1.57;0.97;;;4.50;99.90;;;;;;7359222;19;20193;-78
2024/01/29 07:04:12;;;;;;;0.77;0.77;;;4.50;99.90;;;;;;7362761;19;20194;-77
2024/01/29 07:06:37;;;;;;;1.00;1.00;;;4.70;99.90;;;;;;7358121;19;20204;-78
2024/01/29 07:09:03;;;;;;;1.10;1.00;;;4.90;99.90;;;;;;7384459;19;20134;-77
2024/01/29 07:11:29;;;;;;;0.93;0.90;;;5.00;99.90;;;;;;7360201;19;20207;-77
2024/01/29 07:13:54;;;;;;;1.67;1.40;;;4.90;99.90;;;;;;7368186;19;20221;-78
2024/01/29 07:16:20;;;;;;;1.30;1.20;;;5.10;99.90;;;;;;7369363;19;20538;-79
2024/01/29 07:18:46;;;;;;;2.40;1.07;;;5.00;99.90;;;;;;7367541;19;20249;-77
2024/01/29 07:21:11;;;;;;;1.50;1.40;;;5.10;99.90;;;;;;7368812;19;20119;-77
2024/01/29 07:23:37;;;;;;;1.63;1.33;;;5.20;99.90;;;;;;7390824;19;20166;-76
2024/01/29 07:26:03;;;;;;;2.37;1.37;;;5.20;99.90;;;;;;7368532;19;20562;-76
2024/01/29 07:28:29;;;;;;;1.30;1.20;;;5.20;99.90;;;;;;7368902;19;20202;-76
2024/01/29 07:30:54;;;;;;;2.60;1.00;;;5.30;99.90;;;;;;7367887;19;20206;-77
2024/01/29 07:33:20;;;;;;;0.83;0.77;;;5.10;99.90;;;;;;7368381;19;20488;-79
2024/01/29 07:35:48;;;;;;;1.50;1.40;;;5.10;99.90;;;;;;7390558;19;20138;-77
2024/01/29 07:38:14;;;;;;;1.60;1.30;;;5.30;99.90;;;;;;7367511;19;20654;-78
2024/01/29 07:40:39;;;;;;;1.17;0.93;;;5.30;99.90;;;;;;7365568;19;20189;-78
2024/01/29 07:43:05;;;;;;;1.67;1.47;;;5.40;99.90;;;;;;7368457;19;20186;-79
2024/01/29 07:45:32;;;;;;;2.03;1.57;;;5.40;99.90;;;;;;7364697;19;20190;-80
2024/01/29 07:47:59;;;;;;;1.93;1.60;;;5.40;99.90;;;;;;7390430;19;20134;-79
2024/01/29 07:50:24;;;;;;;1.40;1.30;;;5.50;99.90;;;;;;7369822;19;20194;-80
2024/01/29 07:52:50;;;;;;;1.47;1.27;;;5.60;99.90;;;;;;7367566;19;20190;-77
2024/01/29 07:55:16;;;;;;;1.73;1.40;;;5.60;99.90;;;;;;7364613;19;20189;-79
2024/01/29 07:57:42;;;;;;;1.53;1.30;;;5.70;99.90;;;;;;7363724;19;20330;-80
2024/01/29 08:00:08;;;;;;;2.03;1.53;;;5.60;99.90;;;;;;7363034;19;20138;-75
2024/01/29 08:02:34;;;;;;;1.20;0.83;;;5.40;99.90;;;;;;7390089;19;20147;-80
2024/01/29 08:05:01;;;;;;;1.40;1.30;;;5.60;99.90;;;;;;7365811;19;20302;-80
2024/01/29 08:07:26;;;;;;;2.03;1.10;;;5.70;99.90;;;;;;7368369;19;20621;-82
2024/01/29 08:09:52;;;;;;;1.57;1.23;;;5.80;99.90;;;;;;7365074;19;20205;-79
2024/01/29 08:12:19;;;;;;;1.53;1.10;;;5.90;99.90;;;;;;7369462;19;20475;-80
2024/01/29 08:14:45;;;;;;;1.50;1.10;;;5.90;99.90;;;;;;7391858;19;20135;-78
2024/01/29 08:17:11;;;;;;;2.90;1.20;;;5.80;99.90;;;;;;7368964;19;20645;-79
2024/01/29 08:19:36;;;;;;;1.00;0.83;;;5.90;99.90;;;;;;7367227;19;20241;-78
2024/01/29 08:22:03;;;;;;;1.23;1.07;;;5.50;99.90;;;;;;7368479;19;20518;-75
2024/01/29 08:24:29;;;;;;;1.70;1.20;;;5.50;99.90;;;;;;7369731;19;20185;-78
2024/01/29 08:26:54;;;;;;;1.03;0.80;;;5.70;99.90;;;;;;7389286;19;20472;-81
2024/01/29 08:29:20;;;;;;;6.00;1.90;;;5.70;99.90;;;;;;7368214;19;20211;-79
2024/01/29 08:31:46;;;;;;;3.43;2.07;;;5.60;99.90;;;;;;7365157;19;20211;-78
2024/01/29 08:34:11;;;;;;;4.43;3.17;;;5.70;99.90;;;;;;7368209;19;20192;-81
2024/01/29 08:36:37;;;;;;;3.27;2.07;;;5.50;99.90;;;;;;7369351;19;20181;-78
2024/01/29 08:39:02;;;;;;;2.00;1.80;;;5.70;99.90;;;;;;7389782;19;20668;-74
2024/01/29 08:41:28;;;;;;;2.70;2.40;;;5.60;99.90;;;;;;7366274;19;20198;-79
2024/01/29 08:43:54;;;;;;;3.73;1.57;;;5.60;99.90;;;;;;7365563;19;20252;-82
2024/01/29 08:46:19;;;;;;;1.40;1.30;;;5.80;99.90;;;;;;7369536;19;20338;-79
2024/01/29 08:48:45;;;;;;;1.67;1.27;;;5.40;99.90;;;;;;7366480;19;20659;-81
2024/01/29 08:51:10;;;;;;;2.07;1.60;;;5.30;99.90;;;;;;7366873;19;20222;-79
2024/01/29 08:53:37;;;;;;;1.80;1.47;;;5.30;99.90;;;;;;7387064;19;20165;-78
2024/01/29 08:56:07;;;;;;;1.63;1.13;;;5.40;99.90;;;;;;7367316;19;20646;-79
2024/01/29 08:58:33;;;;;;;1.70;1.40;;;5.20;99.90;;;;;;7365757;19;20233;-78
2024/01/29 09:00:59;;;;;;;1.80;1.63;;;5.50;99.90;;;;;;7365408;19;20201;-78
2024/01/29 09:03:24;;;;;;;1.63;1.53;;;5.60;99.90;;;;;;7368945;19;20191;-79
2024/01/29 09:05:50;;;;;;;1.97;1.70;;;5.80;99.90;;;;;;7389169;19;20178;-77
2024/01/29 09:08:16;;;;;;;4.03;1.57;;;5.90;99.90;;;;;;7365426;19;20204;-77
2024/01/29 09:10:42;;;;;;;1.80;1.20;;;6.00;99.90;;;;;;7363844;19;20188;-80
2024/01/29 09:13:08;;;;;;;1.40;1.30;;;6.00;99.90;;;;;;7368320;19;20178;-81
2024/01/29 09:15:33;;;;;;;3.17;2.40;;;6.10;99.90;;;;;;7369466;19;20196;-80
2024/01/29 09:17:59;;;;;;;2.90;1.47;;;6.20;99.90;;;;;;7389475;19;20141;-80
2024/01/29 09:20:27;;;;;;;2.33;1.20;;;6.30;99.90;;;;;;7367216;19;20209;-79
2024/01/29 09:22:53;;;;;;;2.00;1.60;;;6.40;99.90;;;;;;7364386;19;20214;-80
2024/01/29 09:25:19;;;;;;;2.13;1.50;;;6.40;99.90;;;;;;7367938;19;20232;-80
2024/01/29 09:27:44;;;;;;;3.73;1.50;;;6.20;99.90;;;;;;7367147;19;20704;-79
2024/01/29 09:30:10;;;;;;;1.73;1.63;;;6.10;99.90;;;;;;7369073;19;20130;-79
2024/01/29 09:32:36;;;;;;;2.33;1.17;;;6.30;99.90;;;;;;7387587;19;20129;-80
2024/01/29 09:35:01;;;;;;;1.70;1.30;;;6.40;99.90;;;;;;7365639;19;20190;-78
2024/01/29 09:37:27;;;;;;;1.60;1.07;;;6.50;99.90;;;;;;7364541;19;20217;-79
2024/01/29 09:39:53;;;;;;;2.27;1.60;;;6.50;99.90;;;;;;7364251;19;20218;-79
2024/01/29 09:42:20;;;;;;;2.70;2.00;;;6.30;99.90;;;;;;7368355;19;20617;-80
2024/01/29 09:44:49;;;;;;;2.37;1.47;;;6.40;99.90;;;;;;7388703;19;20119;-79
2024/01/29 09:47:17;;;;;;;2.30;1.43;;;6.60;99.90;;;;;;7364789;19;20615;-79
2024/01/29 09:49:43;;;;;;;2.20;1.97;;;6.70;99.90;;;;;;7363509;19;20268;-76
2024/01/29 09:52:12;;;;;;;1.27;1.17;;;6.90;99.90;;;;;;7364037;19;20189;-78
2024/01/29 09:54:39;;;;;;;2.13;1.30;;;6.80;99.90;;;;;;7364194;19;20216;-80
2024/01/29 09:57:05;;;;;;;2.40;2.00;;;6.80;99.90;;;;;;7383390;19;20126;-77
2024/01/29 09:59:31;;;;;;;2.23;1.77;;;7.00;99.90;;;;;;7378464;19;20146;-80
2024/01/29 10:02:00;;;;;;;2.63;2.17;;;7.10;99.90;;;;;;7364686;19;20186;-77
2024/01/29 10:04:25;;;;;;;1.80;1.40;;;7.30;99.90;;;;;;7366506;19;20540;-78
2024/01/29 10:06:51;;;;;;;1.63;1.53;;;7.30;99.90;;;;;;7363003;19;20197;-77
2024/01/29 10:09:17;;;;;;;1.97;1.33;;;7.40;99.90;;;;;;7365055;19;20768;-79
2024/01/29 10:11:43;;;;;;;2.10;1.90;;;7.40;99.90;;;;;;7385528;19;20158;-78
2024/01/29 10:14:09;;;;;;;1.57;1.47;;;7.50;99.90;;;;;;7366338;19;20186;-77
2024/01/29 10:16:35;;;;;;;1.63;1.53;;;7.60;99.90;;;;;;7363014;19;20181;-78
2024/01/29 10:19:02;;;;;;;1.20;1.10;;;7.70;99.90;;;;;;7368082;19;20269;-76
2024/01/29 10:21:36;;;;;;;1.33;1.23;;;7.80;99.90;;;;;;7364722;19;20627;-78
2024/01/29 10:24:02;;;;;;;2.27;1.87;;;7.80;99.90;;;;;;7388398;19;20150;-78
2024/01/29 10:26:28;;;;;;;2.23;1.47;;;7.80;99.90;;;;;;7362419;19;20174;-80
2024/01/29 10:29:02;;;;;;;1.53;1.20;;;8.00;99.90;;;;;;7364618;19;20182;-81
2024/01/29 10:31:28;;;;;;;1.40;1.30;;;8.10;99.90;;;;;;7362009;19;20197;-81
2024/01/29 10:33:54;;;;;;;1.63;1.30;;;8.20;99.90;;;;;;7362759;19;20181;-81
2024/01/29 10:36:21;;;;;;;1.90;1.40;;;8.30;99.90;;;;;;7365530;19;20580;-80
2024/01/29 10:38:47;;;;;;;2.43;2.07;;;8.10;99.90;;;;;;7385912;19;20135;-79
2024/01/29 10:41:17;;;;;;;2.37;1.70;;;8.30;99.90;;;;;;7362371;19;20265;-78
2024/01/29 10:43:48;;;;;;;2.07;1.47;;;8.50;99.90;;;;;;7365047;19;20940;-75
2024/01/29 10:46:20;;;;;;;1.93;1.57;;;8.60;99.90;;;;;;7364437;19;20194;-81
2024/01/29 10:48:47;;;;;;;1.50;1.40;;;8.70;99.90;;;;;;7370058;19;20181;-80
2024/01/29 10:51:14;;;;;;;2.23;1.60;;;8.70;99.90;;;;;;7380101;19;20886;-78
2024/01/29 10:53:41;;;;;;;2.13;1.57;;;8.80;99.90;;;;;;7394128;19;20130;-77
2024/01/29 10:56:07;;;;;;;3.20;2.17;;;8.80;99.90;;;;;;7370490;19;20182;-79
2024/01/29 10:58:34;;;;;;;2.27;1.97;;;8.90;99.90;;;;;;7369911;19;20190;-79
2024/01/29 11:01:00;;;;;;;2.77;1.97;;;8.90;99.90;;;;;;7375131;19;20189;-79
2024/01/29 11:03:26;;;;;;;2.10;1.83;;;8.90;99.90;;;;;;7369547;19;20230;-78
2024/01/29 11:06:23;;;;;;;1.80;1.57;;;9.00;99.90;;;;;;7390930;19;20749;-79
2024/01/29 11:08:57;;;;;;;3.17;2.07;;;9.00;99.90;;;;;;7370567;19;20597;-79
2024/01/29 11:11:25;;;;;;;3.97;2.17;;;9.10;99.90;;;;;;7369272;19;20639;-79
2024/01/29 11:13:51;;;;;;;5.70;2.57;;;9.20;99.90;;;;;;7373004;19;20178;-79
2024/01/29 11:16:16;;;;;;;3.27;2.27;;;9.20;99.90;;;;;;7371089;19;20206;-79
2024/01/29 11:18:42;;;;;;;2.03;1.83;;;9.30;99.90;;;;;;7364815;19;20263;-79
2024/01/29 11:21:14;;;;;;;2.03;1.70;;;9.30;99.90;;;;;;7372106;19;20123;-78
2024/01/29 11:23:47;;;;;;;1.53;1.30;;;9.40;99.90;;;;;;7393284;19;20122;-77
2024/01/29 11:26:17;;;;;;;2.43;1.83;;;9.50;99.90;;;;;;7371418;19;20182;-82
2024/01/29 11:28:43;;;;;;;1.40;1.20;;;9.40;99.90;;;;;;7373789;19;20181;-79
2024/01/29 11:31:11;;;;;;;2.70;2.23;;;9.50;99.90;;;;;;7371074;19;20530;-77
2024/01/29 11:33:36;;;;;;;3.07;2.10;;;9.60;99.90;;;;;;7370604;19;20190;-80
2024/01/29 11:36:12;;;;;;;2.57;1.93;;;9.70;99.90;;;;;;7399308;19;20118;-78
2024/01/29 11:38:38;;;;;;;2.53;2.33;;;9.90;99.90;;;;;;7373347;19;20206;-80
2024/01/29 11:41:04;;;;;;;2.50;1.97;;;10.00;99.90;;;;;;7370508;19;20186;-78
2024/01/29 11:43:30;;;;;;;2.73;1.73;;;10.00;99.90;;;;;;7373356;19;20631;-78
2024/01/29 11:45:57;;;;;;;3.50;2.30;;;10.10;99.90;;;;;;7369446;19;20186;-79
2024/01/29 11:48:26;;;;;;;5.77;2.07;;;10.20;99.90;;;;;;7372221;19;20135;-78
2024/01/29 11:50:54;;;;;;;2.77;1.77;;;10.20;99.90;;;;;;7392134;19;20136;-77
2024/01/29 11:53:21;;;;;;;2.77;2.50;;;10.20;99.90;;;;;;7370447;19;20182;-77
2024/01/29 11:55:47;;;;;;;2.37;1.90;;;10.40;99.90;;;;;;7371844;19;20186;-77
2024/01/29 11:58:18;;;;;;;4.00;2.47;;;10.60;99.90;;;;;;7369676;19;20193;-77
2024/01/29 12:00:44;;;;;;;3.17;2.13;;;10.50;99.90;;;;;;7367425;19;20201;-77
2024/01/29 12:03:14;;;;;;;3.17;1.93;;;10.70;99.90;;;;;;7364617;19;20146;-77
2024/01/29 12:05:40;;;;;;;2.70;1.93;;;10.80;99.90;;;;;;7388321;19;20182;-78
2024/01/29 12:08:27;;;;;;;4.27;2.47;;;11.00;99.90;;;;;;7369505;19;20717;-79
2024/01/29 12:10:59;;;;;;;3.20;2.03;;;11.10;99.90;;;;;;7369372;19;20544;-78
2024/01/29 12:13:25;;;;;;;1.63;1.30;;;11.10;99.90;;;;;;7368450;19;20181;-78
2024/01/29 12:15:55;;;;;;;2.37;2.00;;;11.20;99.90;;;;;;7368140;19;20202;-76
2024/01/29 12:18:23;;;;;;;3.00;2.47;;;11.30;99.90;;;;;;7368885;19;20243;-78
2024/01/29 12:20:49;;;;;;;3.30;2.10;;;11.40;99.90;;;;;;7394799;19;20154;-80
2024/01/29 12:23:20;;;;;;;2.50;2.17;;;11.60;99.90;;;;;;7363923;19;20205;-78
2024/01/29 12:25:51;;;;;;;2.00;1.50;;;11.70;99.90;;;;;;7367623;19;20186;-77
2024/01/29 12:28:16;;;;;;;2.28;1.52;;;12.00;99.90;;;;;;7369113;19;20182;-78
2024/01/29 12:30:43;;;;;;;4.28;2.13;;;12.40;99.90;;;;;;7369218;19;20794;-77
2024/01/29 12:33:17;;;;;;;3.57;2.27;;;12.70;99.90;;;;;;7371769;19;20160;-78
2024/01/29 12:35:43;;;;;;;2.90;1.87;;;12.80;99.90;;;;;;7390798;19;20122;-77
2024/01/29 12:38:12;;;;;;;3.10;2.08;;;12.90;99.90;;;;;;7367497;19;20211;-79
2024/01/29 12:40:41;;;;;;;3.23;1.93;;;12.70;99.90;;;;;;7362801;19;20384;-77
2024/01/29 12:43:09;;;;;;;2.67;1.60;;;12.70;99.90;;;;;;7369982;19;20193;-79
2024/01/29 12:45:36;;;;;;;2.00;1.70;;;12.50;99.90;;;;;;7368639;19;20631;-79
2024/01/29 12:48:12;;;;;;;2.13;1.40;;;12.50;99.90;;;;;;7390903;19;20151;-79
2024/01/29 12:50:41;;;;;;;1.92;1.42;;;12.50;99.90;;;;;;7367006;19;20202;-79